createdAt,value
2023-03-05T00:00:18.256Z,5.27
2023-03-05T00:02:44.681Z,5.07
2023-03-05T00:05:11.640Z,5.19
2023-03-05T00:07:38.004Z,5.28
2023-03-05T00:10:06.169Z,5.18
2023-03-05T00:12:32.705Z,5.45
2023-03-05T00:14:59.160Z,5.40
2023-03-05T00:17:25.595Z,5.34
2023-03-05T00:19:51.995Z,5.24
2023-03-05T00:22:18.377Z,5.12
2023-03-05T00:24:44.745Z,5.11
2023-03-05T00:27:11.182Z,4.87
2023-03-05T00:29:37.593Z,5.25
2023-03-05T00:32:04.100Z,5.11
2023-03-05T00:34:31.600Z,5.03
2023-03-05T00:36:58.167Z,5.22
2023-03-05T00:39:24.547Z,5.13
2023-03-05T00:41:51.277Z,5.21
2023-03-05T00:44:17.777Z,5.03
2023-03-05T00:46:44.365Z,4.81
2023-03-05T00:49:10.758Z,5.00
2023-03-05T00:51:37.191Z,4.82
2023-03-05T00:54:04.357Z,4.81
2023-03-05T00:56:31.030Z,4.70
2023-03-05T00:58:57.571Z,4.89
2023-03-05T01:01:24.344Z,5.20
2023-03-05T01:03:51.093Z,4.84
2023-03-05T01:06:17.917Z,4.84
2023-03-05T01:08:45.307Z,4.97
2023-03-05T01:11:12.389Z,4.84
2023-03-05T01:13:39.320Z,4.85
2023-03-05T01:16:06.209Z,5.08
2023-03-05T01:18:33.147Z,5.00
2023-03-05T01:20:59.575Z,5.11
2023-03-05T01:23:26.345Z,5.07
2023-03-05T01:25:57.354Z,5.09
2023-03-05T01:28:24.073Z,5.04
2023-03-05T01:30:50.497Z,5.21
2023-03-05T01:33:16.966Z,5.25
2023-03-05T01:35:47.013Z,5.15
2023-03-05T01:38:13.587Z,4.79
2023-03-05T01:40:41.077Z,5.03
2023-03-05T01:43:20.720Z,4.97
2023-03-05T01:46:41.570Z,4.91
2023-03-05T01:49:24.507Z,4.73
2023-03-05T01:52:02.865Z,4.87
2023-03-05T01:54:43.136Z,5.16
2023-03-05T01:57:15.784Z,5.12
2023-03-05T01:59:44.879Z,4.85
2023-03-05T02:02:12.906Z,4.92
2023-03-05T02:05:00.587Z,4.64
2023-03-05T02:07:27.446Z,4.68
2023-03-05T02:09:53.818Z,4.77
2023-03-05T02:12:20.415Z,4.58
2023-03-05T02:14:49.462Z,4.84
2023-03-05T02:17:16.278Z,4.51
2023-03-05T02:19:48.268Z,4.87
2023-03-05T02:22:19.519Z,4.71
2023-03-05T02:24:46.243Z,4.73
2023-03-05T02:27:13.509Z,4.75
2023-03-05T02:29:44.896Z,4.88
2023-03-05T02:32:12.772Z,4.95
2023-03-05T02:34:39.645Z,4.94
2023-03-05T02:37:09.078Z,4.98
2023-03-05T02:39:35.553Z,4.99
2023-03-05T02:42:02.027Z,4.94
2023-03-05T02:44:28.446Z,4.81
2023-03-05T02:46:54.855Z,4.47
2023-03-05T02:49:21.216Z,4.51
2023-03-05T02:51:47.601Z,4.40
2023-03-05T02:54:13.976Z,4.54
2023-03-05T02:56:40.602Z,4.43
2023-03-05T02:59:07.057Z,4.53
2023-03-05T03:01:33.452Z,4.55
2023-03-05T03:04:00.046Z,4.55
2023-03-05T03:06:26.681Z,4.34
2023-03-05T03:08:53.026Z,4.50
2023-03-05T03:11:20.763Z,4.59
2023-03-05T03:13:47.223Z,4.39
2023-03-05T03:16:15.437Z,4.56
2023-03-05T03:18:42.097Z,4.45
2023-03-05T03:21:08.656Z,4.08
2023-03-05T03:23:35.093Z,4.33
2023-03-05T03:26:01.463Z,4.25
2023-03-05T03:28:27.873Z,4.40
2023-03-05T03:30:54.303Z,4.23
2023-03-05T03:33:20.739Z,4.08
2023-03-05T03:35:47.241Z,4.01
2023-03-05T03:38:13.847Z,4.16
2023-03-05T03:40:41.762Z,4.09
2023-03-05T03:43:08.227Z,3.94
2023-03-05T03:45:35.088Z,4.20
2023-03-05T03:48:01.502Z,4.15
2023-03-05T03:50:27.942Z,4.18
2023-03-05T03:52:54.562Z,4.02
2023-03-05T03:55:20.918Z,4.09
2023-03-05T03:57:47.319Z,4.40
2023-03-05T04:00:14.164Z,4.27
2023-03-05T04:02:40.564Z,4.18
2023-03-05T04:05:07.624Z,4.14
2023-03-05T04:07:34.050Z,4.25
2023-03-05T04:10:00.464Z,4.06
2023-03-05T04:12:26.838Z,4.24
2023-03-05T04:14:53.254Z,4.24
2023-03-05T04:17:19.628Z,4.15
2023-03-05T04:19:45.982Z,3.71
2023-03-05T04:22:15.026Z,3.84
2023-03-05T04:24:42.007Z,3.88
2023-03-05T04:27:08.790Z,4.01
2023-03-05T04:29:35.559Z,3.94
2023-03-05T04:32:02.361Z,3.74
2023-03-05T04:34:28.827Z,3.78
2023-03-05T04:36:55.338Z,3.96
2023-03-05T04:39:21.811Z,4.13
2023-03-05T04:41:48.413Z,3.92
2023-03-05T04:44:14.961Z,3.95
2023-03-05T04:46:41.479Z,4.03
2023-03-05T04:49:07.921Z,4.04
2023-03-05T04:51:34.676Z,4.09
2023-03-05T04:54:01.038Z,4.08
2023-03-05T04:56:27.438Z,4.09
2023-03-05T04:58:53.865Z,3.95
2023-03-05T05:01:20.332Z,3.81
2023-03-05T05:03:46.756Z,3.68
2023-03-05T05:06:13.146Z,3.72
2023-03-05T05:08:39.525Z,4.04
2023-03-05T05:11:07.871Z,4.08
2023-03-05T05:13:35.023Z,4.11
2023-03-05T05:16:01.759Z,3.90
2023-03-05T05:18:28.292Z,3.89
2023-03-05T05:20:54.701Z,3.79
2023-03-05T05:23:21.435Z,3.85
2023-03-05T05:25:56.331Z,3.82
2023-03-05T05:28:22.695Z,3.85
2023-03-05T05:30:49.050Z,3.59
2023-03-05T05:33:15.395Z,3.51
2023-03-05T05:35:41.815Z,3.64
2023-03-05T05:38:08.335Z,3.76
2023-03-05T05:40:34.744Z,3.72
2023-03-05T05:43:01.215Z,3.57
2023-03-05T05:45:27.864Z,3.64
2023-03-05T05:47:54.276Z,3.58
2023-03-05T05:50:21.207Z,3.66
2023-03-05T05:52:47.580Z,3.57
2023-03-05T05:55:13.990Z,3.66
2023-03-05T05:57:40.869Z,3.66
2023-03-05T06:00:09.848Z,3.68
2023-03-05T06:02:38.786Z,3.76
2023-03-05T06:05:05.814Z,3.74
2023-03-05T06:07:34.428Z,3.68
2023-03-05T06:10:00.970Z,3.64
2023-03-05T06:12:27.330Z,3.60
2023-03-05T06:14:53.879Z,3.45
2023-03-05T06:17:29.831Z,3.41
2023-03-05T06:19:56.690Z,3.46
2023-03-05T06:22:23.042Z,3.39
2023-03-05T06:24:49.531Z,3.44
2023-03-05T06:27:15.942Z,3.64
2023-03-05T06:29:42.331Z,3.71
2023-03-05T06:32:08.955Z,3.67
2023-03-05T06:34:35.889Z,3.60
2023-03-05T06:37:02.473Z,3.70
2023-03-05T06:39:30.245Z,3.81
2023-03-05T06:41:56.818Z,3.89
2023-03-05T06:44:23.197Z,3.59
2023-03-05T06:46:49.562Z,3.45
2023-03-05T06:49:15.934Z,3.49
2023-03-05T06:51:42.372Z,3.48
2023-03-05T06:54:11.825Z,3.61
2023-03-05T06:56:40.226Z,3.68
2023-03-05T06:59:07.585Z,3.72
2023-03-05T07:01:34.173Z,3.87
2023-03-05T07:04:02.874Z,3.97
2023-03-05T07:06:32.502Z,3.94
2023-03-05T07:09:01.274Z,3.83
2023-03-05T07:11:28.377Z,3.85
2023-03-05T07:13:55.067Z,3.91
2023-03-05T07:16:27.254Z,3.81
2023-03-05T07:18:56.143Z,3.86
2023-03-05T07:21:32.279Z,3.91
2023-03-05T07:24:00.336Z,3.96
2023-03-05T07:26:27.344Z,4.01
2023-03-05T07:28:54.777Z,4.11
2023-03-05T07:31:26.878Z,4.02
2023-03-05T07:33:53.475Z,4.14
2023-03-05T07:36:21.169Z,4.27
2023-03-05T07:38:47.548Z,4.21
2023-03-05T07:41:19.974Z,4.42
2023-03-05T07:43:48.506Z,4.60
2023-03-05T07:46:16.901Z,4.69
2023-03-05T07:48:43.416Z,4.76
2023-03-05T07:51:16.029Z,4.78
2023-03-05T07:53:43.814Z,4.90
2023-03-05T07:56:11.022Z,4.94
2023-03-05T07:58:37.574Z,4.99
2023-03-05T08:01:04.479Z,4.87
2023-03-05T08:03:30.911Z,4.94
2023-03-05T08:05:57.341Z,5.00
2023-03-05T08:08:23.799Z,5.01
2023-03-05T08:10:50.181Z,5.12
2023-03-05T08:13:16.574Z,5.22
2023-03-05T08:15:42.982Z,5.37
2023-03-05T08:18:09.394Z,5.30
2023-03-05T08:20:36.299Z,5.37
2023-03-05T08:23:03.378Z,5.47
2023-03-05T08:25:30.011Z,5.56
2023-03-05T08:27:56.926Z,5.67
2023-03-05T08:30:27.037Z,5.74
2023-03-05T08:32:54.646Z,5.83
2023-03-05T08:35:21.659Z,5.87
2023-03-05T08:37:48.775Z,6.02
2023-03-05T08:40:17.910Z,5.97
2023-03-05T08:42:44.736Z,6.11
2023-03-05T08:45:11.781Z,6.25
2023-03-05T08:47:38.189Z,6.27
2023-03-05T08:50:04.960Z,6.37
2023-03-05T08:52:31.606Z,6.40
2023-03-05T08:54:58.135Z,6.44
2023-03-05T08:57:24.516Z,6.57
2023-03-05T08:59:50.887Z,6.57
2023-03-05T09:02:17.316Z,6.71
2023-03-05T09:04:43.716Z,6.65
2023-03-05T09:07:10.426Z,6.76
2023-03-05T09:09:37.301Z,6.84
2023-03-05T09:12:04.049Z,6.85
2023-03-05T09:14:30.598Z,6.92
2023-03-05T09:16:57.662Z,7.00
2023-03-05T09:19:24.556Z,7.08
2023-03-05T09:21:51.352Z,7.17
2023-03-05T09:24:17.841Z,7.27
2023-03-05T09:26:44.352Z,7.38
2023-03-05T09:29:10.939Z,7.40
2023-03-05T09:31:37.572Z,7.48
2023-03-05T09:34:20.010Z,7.54
2023-03-05T09:36:46.428Z,7.62
2023-03-05T09:39:12.865Z,7.63
2023-03-05T09:42:09.830Z,7.63
2023-03-05T09:44:56.621Z,7.78
2023-03-05T09:47:41.295Z,7.81
2023-03-05T09:50:32.420Z,7.85
2023-03-05T09:53:09.951Z,8.02
2023-03-05T09:55:53.324Z,8.11
2023-03-05T09:58:33.783Z,8.14
2023-03-05T10:01:05.006Z,8.14
2023-03-05T10:03:43.621Z,8.19
2023-03-05T10:06:21.469Z,8.28
2023-03-05T10:09:09.641Z,8.33
2023-03-05T10:11:54.866Z,8.41
2023-03-05T10:14:34.549Z,8.42
2023-03-05T10:17:25.418Z,8.53
2023-03-05T10:20:13.754Z,8.70
2023-03-05T10:22:58.980Z,8.83
2023-03-05T10:25:52.037Z,8.81
2023-03-05T10:28:26.588Z,9.00
2023-03-05T10:30:59.241Z,9.09
2023-03-05T10:33:37.605Z,9.12
2023-03-05T10:36:41.471Z,9.04
2023-03-05T10:39:18.253Z,9.21
2023-03-05T10:42:15.845Z,9.35
2023-03-05T10:44:49.722Z,9.48
2023-03-05T10:47:41.570Z,9.42
2023-03-05T10:50:31.672Z,9.58
2023-03-05T10:53:15.204Z,9.65
2023-03-05T10:55:42.058Z,9.56
2023-03-05T10:58:13.671Z,9.57
2023-03-05T11:00:41.073Z,9.61
2023-03-05T11:03:10.756Z,9.86
2023-03-05T11:05:50.298Z,9.80
2023-03-05T11:08:19.675Z,9.76
2023-03-05T11:10:46.013Z,10.04
2023-03-05T11:13:26.381Z,10.30
2023-03-05T11:16:04.935Z,10.19
2023-03-05T11:18:34.675Z,10.17
2023-03-05T11:21:12.480Z,10.30
2023-03-05T11:23:38.967Z,10.38
2023-03-05T11:26:19.473Z,10.41
2023-03-05T11:29:15.737Z,10.45
2023-03-05T11:31:42.187Z,10.56
2023-03-05T11:34:17.560Z,10.52
2023-03-05T11:36:53.194Z,10.43
2023-03-05T11:39:23.669Z,10.56
2023-03-05T11:42:06.346Z,10.36
2023-03-05T11:44:45.622Z,10.43
2023-03-05T11:47:21.084Z,10.71
2023-03-05T11:49:50.428Z,10.67
2023-03-05T11:52:30.944Z,10.62
2023-03-05T11:55:15.270Z,10.68
2023-03-05T11:57:48.667Z,10.80
2023-03-05T12:00:18.161Z,10.86
2023-03-05T12:02:48.909Z,10.85
2023-03-05T12:05:16.023Z,10.76
2023-03-05T12:07:48.184Z,10.84
2023-03-05T12:10:17.902Z,11.01
2023-03-05T12:12:58.249Z,10.98
2023-03-05T12:15:50.936Z,11.03
2023-03-05T12:18:40.865Z,10.94
2023-03-05T12:21:29.779Z,11.19
2023-03-05T12:24:04.794Z,11.31
2023-03-05T12:26:53.158Z,11.12
2023-03-05T12:29:54.339Z,11.35
2023-03-05T12:32:28.752Z,11.34
2023-03-05T12:35:22.173Z,11.35
2023-03-05T12:37:51.399Z,11.43
2023-03-05T12:40:17.698Z,11.46
2023-03-05T12:43:04.330Z,11.53
2023-03-05T12:45:40.330Z,11.46
2023-03-05T12:48:11.816Z,11.70
2023-03-05T12:50:38.260Z,11.73
2023-03-05T12:53:04.569Z,11.70
2023-03-05T12:55:45.295Z,11.55
2023-03-05T12:58:17.041Z,11.62
2023-03-05T13:00:45.387Z,11.65
2023-03-05T13:03:19.131Z,11.97
2023-03-05T13:05:54.764Z,11.80
2023-03-05T13:08:23.897Z,11.95
2023-03-05T13:10:54.459Z,12.01
2023-03-05T13:13:21.641Z,11.92
2023-03-05T13:15:50.754Z,11.85
2023-03-05T13:18:26.038Z,11.86
2023-03-05T13:21:07.772Z,11.76
2023-03-05T13:23:35.385Z,11.83
2023-03-05T13:26:19.780Z,11.76
2023-03-05T13:29:12.965Z,11.79
2023-03-05T13:31:49.232Z,11.96
2023-03-05T13:34:44.566Z,11.87
2023-03-05T13:37:23.608Z,11.84
2023-03-05T13:40:02.021Z,11.95
2023-03-05T13:42:34.597Z,11.94
2023-03-05T13:45:07.019Z,11.90
2023-03-05T13:47:35.756Z,11.73
2023-03-05T13:50:07.341Z,12.02
2023-03-05T13:52:36.308Z,12.09
2023-03-05T13:55:12.207Z,12.12
2023-03-05T13:57:47.174Z,11.92
2023-03-05T14:00:34.958Z,11.94
2023-03-05T14:03:21.148Z,11.97
2023-03-05T14:05:49.809Z,11.96
2023-03-05T14:08:24.344Z,11.87
2023-03-05T14:10:51.392Z,11.84
2023-03-05T14:13:20.521Z,12.06
2023-03-05T14:16:06.087Z,11.91
2023-03-05T14:18:33.248Z,11.89
2023-03-05T14:21:07.714Z,12.05
2023-03-05T14:23:45.808Z,11.94
2023-03-05T14:26:21.272Z,12.17
2023-03-05T14:28:52.775Z,12.20
2023-03-05T14:31:20.312Z,12.16
2023-03-05T14:33:48.546Z,12.12
2023-03-05T14:36:22.152Z,12.09
2023-03-05T14:38:48.608Z,11.90
2023-03-05T14:41:38.366Z,11.87
2023-03-05T14:44:17.271Z,11.91
2023-03-05T14:46:48.114Z,11.89
2023-03-05T14:49:14.627Z,12.08
2023-03-05T14:51:44.075Z,11.94
2023-03-05T14:54:23.874Z,11.85
2023-03-05T14:56:50.558Z,11.81
2023-03-05T14:59:18.384Z,11.77
2023-03-05T15:01:45.035Z,11.96
2023-03-05T15:04:11.523Z,11.87
2023-03-05T15:06:40.383Z,11.75
2023-03-05T15:09:07.737Z,11.94
2023-03-05T15:11:34.288Z,11.89
2023-03-05T15:14:00.662Z,11.73
2023-03-05T15:16:27.096Z,11.80
2023-03-05T15:18:53.598Z,11.64
2023-03-05T15:21:19.995Z,11.66
2023-03-05T15:23:46.402Z,11.66
2023-03-05T15:26:15.131Z,11.81
2023-03-05T15:28:42.216Z,11.69
2023-03-05T15:31:09.655Z,11.58
2023-03-05T15:33:36.401Z,11.56
2023-03-05T15:36:03.453Z,11.48
2023-03-05T15:38:29.897Z,11.38
2023-03-05T15:40:56.285Z,11.42
2023-03-05T15:43:22.646Z,11.38
2023-03-05T15:45:49.182Z,11.41
2023-03-05T15:48:15.747Z,11.36
2023-03-05T15:50:43.749Z,11.33
2023-03-05T15:53:12.648Z,11.24
2023-03-05T15:55:40.333Z,11.27
2023-03-05T15:58:07.013Z,11.34
2023-03-05T16:00:36.561Z,11.26
2023-03-05T16:03:03.981Z,11.32
2023-03-05T16:05:30.483Z,11.29
2023-03-05T16:07:57.278Z,11.29
2023-03-05T16:10:26.860Z,11.15
2023-03-05T16:13:03.958Z,11.07
2023-03-05T16:15:33.093Z,11.02
2023-03-05T16:18:02.728Z,10.98
2023-03-05T16:20:29.196Z,10.89
2023-03-05T16:22:55.585Z,10.89
2023-03-05T16:25:22.051Z,10.88
2023-03-05T16:27:48.542Z,10.82
2023-03-05T16:30:16.197Z,10.80
2023-03-05T16:32:43.448Z,10.79
2023-03-05T16:35:12.163Z,10.69
2023-03-05T16:37:39.404Z,10.58
2023-03-05T16:40:06.938Z,10.52
2023-03-05T16:42:33.583Z,10.44
2023-03-05T16:44:59.985Z,10.27
2023-03-05T16:47:26.510Z,10.25
2023-03-05T16:49:52.905Z,10.20
2023-03-05T16:52:20.891Z,10.07
2023-03-05T16:54:47.529Z,10.02
2023-03-05T16:57:14.479Z,10.01
2023-03-05T16:59:41.471Z,9.99
2023-03-05T17:02:08.031Z,9.96
2023-03-05T17:04:34.613Z,9.74
2023-03-05T17:07:01.066Z,9.78
2023-03-05T17:09:27.568Z,9.77
2023-03-05T17:11:54.835Z,9.72
2023-03-05T17:14:21.852Z,9.66
2023-03-05T17:16:48.272Z,9.66
2023-03-05T17:19:15.033Z,9.59
2023-03-05T17:21:42.544Z,9.59
2023-03-05T17:24:09.843Z,9.59
2023-03-05T17:26:36.779Z,9.55
2023-03-05T17:29:05.373Z,9.49
2023-03-05T17:31:32.143Z,9.40
2023-03-05T17:33:58.664Z,9.39
2023-03-05T17:36:26.034Z,9.40
2023-03-05T17:38:53.462Z,9.37
2023-03-05T17:41:20.630Z,9.36
2023-03-05T17:43:47.062Z,9.26
2023-03-05T17:46:14.332Z,9.18
2023-03-05T17:48:41.545Z,9.11
2023-03-05T17:51:09.913Z,9.09
2023-03-05T17:53:38.814Z,9.15
2023-03-05T17:56:10.581Z,9.27
2023-03-05T17:58:37.531Z,9.33
2023-03-05T18:01:05.079Z,9.31
2023-03-05T18:03:31.595Z,9.24
2023-03-05T18:05:58.248Z,9.33
2023-03-05T18:08:24.660Z,9.33
2023-03-05T18:10:51.052Z,9.37
2023-03-05T18:13:17.504Z,9.21
2023-03-05T18:15:47.553Z,9.13
2023-03-05T18:18:18.118Z,9.12
2023-03-05T18:20:45.229Z,9.19
2023-03-05T18:23:11.688Z,9.25
2023-03-05T18:25:38.144Z,9.27
2023-03-05T18:28:09.654Z,9.26
2023-03-05T18:30:37.238Z,9.17
2023-03-05T18:33:04.812Z,9.10
2023-03-05T18:35:32.221Z,9.22
2023-03-05T18:37:59.363Z,9.19
2023-03-05T18:40:28.604Z,9.20
2023-03-05T18:42:55.297Z,9.21
2023-03-05T18:45:22.548Z,9.14
2023-03-05T18:47:53.834Z,9.08
2023-03-05T18:50:22.202Z,9.06
2023-03-05T18:52:48.986Z,9.08
2023-03-05T18:55:17.571Z,9.06
2023-03-05T18:57:44.085Z,9.00
2023-03-05T19:00:14.607Z,8.92
2023-03-05T19:02:41.101Z,8.91
2023-03-05T19:05:08.190Z,8.93
2023-03-05T19:07:35.243Z,8.92
2023-03-05T19:10:07.472Z,8.91
2023-03-05T19:13:39.385Z,8.86
2023-03-05T19:16:23.696Z,8.79
2023-03-05T19:19:22.251Z,8.85
2023-03-05T19:21:53.961Z,8.78
2023-03-05T19:24:25.004Z,8.75
2023-03-05T19:26:55.205Z,8.78
2023-03-05T19:29:23.903Z,8.77
2023-03-05T19:31:51.082Z,8.75
2023-03-05T19:34:18.286Z,8.72
2023-03-05T19:36:44.671Z,8.70
2023-03-05T19:39:11.231Z,8.66
2023-03-05T19:41:37.739Z,8.63
2023-03-05T19:44:04.570Z,8.64
2023-03-05T19:46:31.360Z,8.66
2023-03-05T19:48:58.027Z,8.65
2023-03-05T19:51:26.175Z,8.70
2023-03-05T19:53:52.703Z,8.73
2023-03-05T19:56:19.351Z,8.77
2023-03-05T19:58:47.515Z,8.69
2023-03-05T20:01:22.789Z,8.61
2023-03-05T20:03:52.421Z,8.56
2023-03-05T20:06:19.489Z,8.55
2023-03-05T20:08:46.067Z,8.61
2023-03-05T20:11:14.460Z,8.56
2023-03-05T20:13:41.664Z,8.62
2023-03-05T20:16:23.956Z,8.65
2023-03-05T20:18:52.972Z,8.61
2023-03-05T20:21:25.153Z,8.59
2023-03-05T20:23:56.894Z,8.53
2023-03-05T20:26:27.752Z,8.50
2023-03-05T20:28:55.978Z,8.43
2023-03-05T20:31:24.800Z,8.56
2023-03-05T20:33:51.317Z,8.49
2023-03-05T20:36:17.922Z,8.42
2023-03-05T20:38:45.675Z,8.49
2023-03-05T20:41:16.369Z,8.54
2023-03-05T20:43:48.740Z,8.68
2023-03-05T20:46:27.076Z,8.70
2023-03-05T20:48:57.581Z,8.67
2023-03-05T20:51:27.072Z,8.63
2023-03-05T20:53:57.996Z,8.60
2023-03-05T20:56:27.976Z,8.62
2023-03-05T20:58:55.716Z,8.62
2023-03-05T21:01:22.152Z,8.61
2023-03-05T21:03:48.544Z,8.50
2023-03-05T21:06:15.462Z,8.52
2023-03-05T21:08:43.602Z,8.50
2023-03-05T21:11:10.997Z,8.52
2023-03-05T21:13:37.664Z,8.59
2023-03-05T21:16:09.099Z,8.59
2023-03-05T21:18:35.824Z,8.58
2023-03-05T21:21:03.062Z,8.66
2023-03-05T21:23:29.675Z,8.70
2023-03-05T21:25:56.131Z,8.67
2023-03-05T21:28:22.633Z,8.64
2023-03-05T21:30:52.546Z,8.70
2023-03-05T21:33:22.976Z,8.74
2023-03-05T21:35:52.552Z,8.77
2023-03-05T21:38:23.341Z,8.74
2023-03-05T21:40:50.654Z,8.72
2023-03-05T21:43:20.102Z,8.78
2023-03-05T21:45:50.927Z,8.69
2023-03-05T21:48:17.544Z,8.68
2023-03-05T21:50:45.437Z,8.58
2023-03-05T21:53:13.143Z,8.56
2023-03-05T21:56:25.185Z,8.57
2023-03-05T21:58:52.852Z,8.64
2023-03-05T22:01:20.951Z,8.64
2023-03-05T22:03:48.137Z,8.56
2023-03-05T22:06:16.582Z,8.34
2023-03-05T22:08:43.098Z,8.28
2023-03-05T22:11:11.152Z,8.23
2023-03-05T22:13:38.276Z,8.24
2023-03-05T22:16:05.902Z,8.29
2023-03-05T22:18:33.609Z,8.35
2023-03-05T22:21:00.770Z,8.29
2023-03-05T22:23:30.493Z,8.32
2023-03-05T22:26:05.370Z,8.31
2023-03-05T22:28:33.150Z,8.39
2023-03-05T22:30:59.977Z,8.38
2023-03-05T22:33:27.436Z,8.36
2023-03-05T22:35:53.989Z,8.32
2023-03-05T22:38:20.730Z,8.32
2023-03-05T22:40:49.592Z,8.37
2023-03-05T22:43:16.629Z,8.39
2023-03-05T22:45:43.096Z,8.27
2023-03-05T22:48:10.309Z,8.26
2023-03-05T22:50:40.928Z,8.37
2023-03-05T22:53:08.187Z,8.42
2023-03-05T22:55:34.653Z,8.35
2023-03-05T22:58:01.074Z,8.27
2023-03-05T23:00:27.607Z,8.18
2023-03-05T23:02:54.144Z,8.21
2023-03-05T23:05:21.293Z,8.33
2023-03-05T23:07:47.791Z,8.35
2023-03-05T23:10:20.520Z,8.38
2023-03-05T23:12:50.090Z,8.27
2023-03-05T23:15:29.073Z,8.28
2023-03-05T23:17:55.613Z,8.28
2023-03-05T23:20:25.192Z,8.33
2023-03-05T23:22:53.595Z,8.27
2023-03-05T23:25:20.620Z,8.25
2023-03-05T23:27:47.134Z,8.30
2023-03-05T23:30:21.894Z,8.25
2023-03-05T23:33:02.264Z,8.19
2023-03-05T23:35:31.347Z,8.21
2023-03-05T23:37:59.752Z,8.19
2023-03-05T23:40:32.134Z,8.14
2023-03-05T23:42:58.899Z,8.16
2023-03-05T23:45:25.762Z,8.19
2023-03-05T23:47:52.946Z,8.24
2023-03-05T23:50:39.614Z,8.20
2023-03-05T23:53:06.833Z,8.23
2023-03-05T23:55:37.310Z,8.16
2023-03-05T23:58:04.006Z,8.12
